メインページ
METAR-TAF:

METAR-TAF

空港 :

ドゥシャンベ空港

ドゥシャンベ, タジキスタン

緯度: 38-33N, 経度: 068-47E, 海抜: 803m

現時点の気象観測

当レポートは27分前の19:00(UTC)に作成
変向風 4kt
気温 19°C
湿度 43%
気圧 1016 hPa
視程10km以上

METAR: UTDD 181900Z VRB02MPS 9999 NSC 19/06 Q1016 R09/D NOSIG RMK QFE694/0925

時間: 00:27 (19:27 UTC)

予報

当レポートは1時間27分前の18:00(UTC)に作成
予報は18日の 19時(UTC)から 19日の 07時(UTC)まで有効
変向風 4kt
視程: 6000m
高度6600ftの雲はほとんどない, 積乱雲.
高度12000ftの雲は散在している

TAF: UTDD 181800Z 1819/1907 VRB02MPS 6000 FEW066CB SCT120

4,000以上の空港の気象観測と天気予報(METAR報とTAF報)

利用可能な観測所は地図上に黄色い丸と赤い丸で示す。

丸の上にカーソルを重ねると観測所名を参照できる。

次にクリックすると気象観測と天気予報を参照できる。

マップの切り替え:黒色「×」印の緑ボタンをクリックして拡大、「-」印の緑ボタンをクリックして縮小、緑色の三角印をクリックして隣りの地図に切り替え


METAR-TAF: